Time;durP1;ratioP1;P1;durP2;ratioP2;P2;SDS_P1;SDS_P2;PMS_P1;PMS_P2;Temp;Humidity;BMP_temperature;BMP_pressure;BME280_temperature;BME280_humidity;BME280_pressure;Samples;Min_cycle;Max_cycle;Signal;HPM_P1;HPM_P2
2023/07/03 00:00:44;;;;;;;10.95;3.45;;;;;;;17.74;83.66;100680.72;5051415;28;20032;-76
2023/07/03 00:03:13;;;;;;;17.95;5.20;;;;;;;17.49;87.65;100679.13;5053744;28;20031;-76
2023/07/03 00:05:43;;;;;;;10.80;4.70;;;;;;;17.52;85.86;100686.78;5060223;28;20025;-75
2023/07/03 00:08:11;;;;;;;13.93;5.30;;;;;;;17.50;87.56;100677.91;5058871;28;20035;-76
2023/07/03 00:10:37;;;;;;;14.35;3.92;;;;;;;17.61;84.52;100675.69;5049372;28;20587;-76
2023/07/03 00:13:03;;;;;;;12.45;4.00;;;;;;;17.40;84.93;100676.84;5042378;28;20036;-76
2023/07/03 00:15:28;;;;;;;16.67;4.00;;;;;;;17.49;86.52;100667.81;5025301;28;20544;-76
2023/07/03 00:17:54;;;;;;;13.82;4.25;;;;;;;17.58;86.01;100670.09;5036344;28;20044;-75
2023/07/03 00:20:19;;;;;;;12.45;3.83;;;;;;;17.54;86.71;100670.16;5039826;28;20441;-75
2023/07/03 00:22:46;;;;;;;12.23;4.55;;;;;;;17.39;87.46;100677.28;5026001;28;20060;-76
2023/07/03 00:25:11;;;;;;;12.90;5.20;;;;;;;17.37;87.99;100665.59;5037198;28;20026;-76
2023/07/03 00:27:37;;;;;;;16.30;5.97;;;;;;;17.42;87.94;100665.91;5025728;28;20059;-75
2023/07/03 00:30:03;;;;;;;14.07;3.75;;;;;;;17.62;84.71;100665.94;5024607;28;20040;-76
2023/07/03 00:32:29;;;;;;;10.25;4.68;;;;;;;17.35;88.18;100668.06;5039602;28;20190;-76
2023/07/03 00:34:55;;;;;;;11.93;4.22;;;;;;;17.54;85.86;100670.16;5026222;28;20473;-76
2023/07/03 00:37:23;;;;;;;18.60;3.25;;;;;;;17.58;86.57;100670.09;5044399;28;20032;-76
2023/07/03 00:39:48;;;;;;;17.83;4.35;;;;;;;17.44;87.72;100671.94;5017190;28;20056;-76
2023/07/03 00:42:14;;;;;;;13.65;5.63;;;;;;;17.43;86.16;100664.69;5038551;28;20056;-76
2023/07/03 00:44:39;;;;;;;11.82;4.60;;;;;;;17.56;88.37;100662.03;5031965;28;20043;-75
2023/07/03 00:47:05;;;;;;;14.45;4.40;;;;;;;17.50;84.99;100669.44;5039270;28;20119;-75
2023/07/03 00:49:32;;;;;;;16.42;5.05;;;;;;;17.31;89.41;100667.31;5034216;28;20060;-75
2023/07/03 00:51:59;;;;;;;9.80;4.10;;;;;;;17.38;87.07;100667.22;5014915;28;20078;-75
2023/07/03 00:54:24;;;;;;;12.70;4.63;;;;;;;17.34;88.84;100660.81;5036946;28;20477;-76
2023/07/03 00:56:50;;;;;;;17.77;5.07;;;;;;;17.37;90.27;100662.75;5028740;28;20033;-76
2023/07/03 00:59:16;;;;;;;17.48;5.55;;;;;;;17.56;86.88;100662.03;5030392;28;20056;-76
2023/07/03 01:01:47;;;;;;;16.35;4.68;;;;;;;17.49;87.23;100656.50;5035937;28;20020;-76
2023/07/03 01:04:17;;;;;;;15.50;5.07;;;;;;;17.14;92.60;100670.03;5040722;28;20540;-75
2023/07/03 01:07:01;;;;;;;12.13;3.40;;;;;;;17.17;90.03;100655.00;5024639;28;20552;-76
2023/07/03 01:09:44;;;;;;;15.02;4.53;;;;;;;17.17;90.34;100657.06;5041739;28;20025;-76
2023/07/03 01:12:10;;;;;;;12.55;4.45;;;;;;;17.46;88.84;100651.72;5020428;28;20381;-75
2023/07/03 01:14:38;;;;;;;22.08;4.07;;;;;;;17.26;89.74;100645.97;5040268;28;20430;-75
2023/07/03 01:17:09;;;;;;;15.85;4.22;;;;;;;17.26;90.85;100649.59;5033943;28;20041;-75
2023/07/03 01:19:36;;;;;;;12.75;3.67;;;;;;;17.42;88.33;100653.81;5041630;28;20124;-75
2023/07/03 01:22:20;;;;;;;16.90;4.63;;;;;;;17.37;91.35;100654.28;5036584;28;20047;-76
2023/07/03 01:25:22;;;;;;;13.15;5.25;;;;;;;17.25;90.09;100647.22;5040348;28;21159;-75
2023/07/03 01:27:50;;;;;;;17.77;3.75;;;;;;;17.27;91.65;100648.38;4977475;28;20531;-75
2023/07/03 01:30:19;;;;;;;18.85;4.75;;;;;;;17.41;90.63;100649.34;4997695;28;20095;-75
2023/07/03 01:32:47;;;;;;;15.27;3.40;;;;;;;17.56;86.95;100628.09;5018222;28;20037;-75
2023/07/03 01:35:14;;;;;;;12.20;3.92;;;;;;;17.41;88.32;100615.41;5038144;28;20033;-75
2023/07/03 01:37:43;;;;;;;15.10;3.70;;;;;;;17.35;91.21;100622.78;5039887;28;20527;-76
2023/07/03 01:40:12;;;;;;;14.85;3.53;;;;;;;17.37;91.96;100626.00;5035795;28;20124;-75
2023/07/03 01:42:40;;;;;;;16.88;4.30;;;;;;;17.13;92.65;100617.50;5030804;28;20203;-76
2023/07/03 01:45:07;;;;;;;13.07;4.30;;;;;;;17.30;92.00;100621.25;5032926;28;20434;-75
2023/07/03 01:47:33;;;;;;;16.30;4.85;;;;;;;17.21;92.03;100621.81;5038436;28;20120;-75
2023/07/03 01:49:59;;;;;;;12.10;4.90;;;;;;;17.40;89.34;100625.94;5037697;28;20116;-75
2023/07/03 01:52:38;;;;;;;14.45;4.50;;;;;;;17.39;88.80;100617.88;5025872;28;20063;-75
2023/07/03 01:55:16;;;;;;;20.55;5.88;;;;;;;17.24;92.24;100606.84;5043141;28;20025;-75
2023/07/03 01:57:46;;;;;;;20.58;4.30;;;;;;;17.19;91.83;100618.63;5020819;28;20033;-75
2023/07/03 02:00:16;;;;;;;14.07;4.30;;;;;;;17.13;93.09;100619.53;5039336;28;20114;-75
2023/07/03 02:02:46;;;;;;;18.35;4.78;;;;;;;16.97;96.35;100631.50;5021135;28;20025;-75
2023/07/03 02:05:26;;;;;;;21.48;5.45;;;;;;;17.10;98.44;100635.34;5033216;28;20036;-75
2023/07/03 02:07:56;;;;;;;9.32;3.58;;;;;;;17.02;97.23;100628.22;5018018;28;20056;-76
2023/07/03 02:10:22;;;;;;;16.85;4.20;;;;;;;16.72;99.83;100629.03;5041789;28;20085;-76
2023/07/03 02:12:47;;;;;;;12.90;3.95;;;;;;;16.65;96.63;100619.44;5042797;28;20041;-76
2023/07/03 02:15:14;;;;;;;18.00;4.50;;;;;;;16.56;100.00;100636.13;5041689;28;20116;-76
2023/07/03 02:17:40;;;;;;;14.20;5.18;;;;;;;16.59;100.00;100625.97;5024801;28;20032;-76
2023/07/03 02:20:07;;;;;;;16.27;3.80;;;;;;;16.54;100.00;100623.66;5032711;28;20056;-76
2023/07/03 02:22:33;;;;;;;11.65;4.22;;;;;;;16.92;96.84;100629.16;5034830;28;20028;-76
2023/07/03 02:25:01;;;;;;;14.80;4.97;;;;;;;16.75;100.00;100620.50;5044013;28;20032;-76
2023/07/03 02:27:26;;;;;;;9.32;3.83;;;;;;;16.85;98.86;100622.41;5037048;28;20446;-76
2023/07/03 02:29:52;;;;;;;15.38;4.75;;;;;;;16.69;100.00;100633.50;5041004;28;20029;-76
2023/07/03 02:32:17;;;;;;;14.55;4.43;;;;;;;16.82;97.14;100625.28;5040086;28;20120;-76
2023/07/03 02:34:43;;;;;;;15.10;3.20;;;;;;;16.79;97.43;100631.75;5042612;28;20032;-76
2023/07/03 02:37:09;;;;;;;9.27;3.83;;;;;;;16.62;99.93;100633.63;5033827;28;20120;-76
2023/07/03 02:39:35;;;;;;;14.48;3.92;;;;;;;16.76;97.85;100633.41;5045340;28;20070;-76
2023/07/03 02:42:00;;;;;;;11.52;3.78;;;;;;;16.71;100.00;100633.09;5047293;28;20457;-76
2023/07/03 02:44:26;;;;;;;8.43;2.67;;;;;;;16.64;100.00;100631.19;5024181;28;20040;-76
2023/07/03 02:46:51;;;;;;;9.82;2.92;;;;;;;16.46;100.00;100632.25;5031568;28;20480;-76
2023/07/03 02:49:16;;;;;;;10.43;3.22;;;;;;;16.59;100.00;100634.47;5038871;28;20167;-76
2023/07/03 02:51:42;;;;;;;18.60;4.30;;;;;;;16.34;100.00;100644.09;5042469;28;20032;-77
2023/07/03 02:54:09;;;;;;;14.98;5.00;;;;;;;16.55;100.00;100625.22;5035664;28;20151;-76
2023/07/03 02:56:35;;;;;;;11.85;3.67;;;;;;;16.42;100.00;100628.66;5018190;28;20040;-76
2023/07/03 02:59:00;;;;;;;12.38;3.60;;;;;;;16.37;100.00;100634.75;5034569;28;20044;-76
2023/07/03 03:01:26;;;;;;;18.05;4.47;;;;;;;16.37;100.00;100628.31;5034456;28;20028;-76
2023/07/03 03:03:51;;;;;;;13.07;3.97;;;;;;;16.45;100.00;100627.78;5040712;28;20392;-76
2023/07/03 03:06:17;;;;;;;7.25;3.05;;;;;;;16.35;100.00;100625.91;5037708;28;20029;-76
2023/07/03 03:08:42;;;;;;;11.18;3.55;;;;;;;16.51;100.00;100621.66;5042313;28;20116;-76
2023/07/03 03:11:07;;;;;;;9.55;3.78;;;;;;;16.39;100.00;100618.19;5037633;28;20095;-76
2023/07/03 03:13:33;;;;;;;9.40;2.97;;;;;;;16.39;100.00;100626.66;5035071;28;20061;-76
2023/07/03 03:15:58;;;;;;;12.38;3.25;;;;;;;16.36;100.00;100621.06;5034519;28;20115;-76
2023/07/03 03:18:23;;;;;;;12.20;3.22;;;;;;;16.48;100.00;100619.69;5044894;28;20040;-76
2023/07/03 03:20:49;;;;;;;10.48;3.42;;;;;;;16.60;97.43;100621.94;5042659;28;20532;-76
2023/07/03 03:23:14;;;;;;;12.30;3.92;;;;;;;16.46;98.23;100618.13;5042479;28;20477;-76
2023/07/03 03:25:40;;;;;;;10.50;3.13;;;;;;;16.58;97.28;100613.09;5032390;28;20045;-76
2023/07/03 03:28:06;;;;;;;12.15;3.28;;;;;;;16.43;99.00;100610.47;5021361;28;20032;-76
2023/07/03 03:30:32;;;;;;;13.02;3.05;;;;;;;16.13;100.00;100611.28;5037393;28;20037;-76
2023/07/03 03:32:57;;;;;;;14.85;3.65;;;;;;;16.40;97.23;100616.97;5043628;28;20036;-76
2023/07/03 03:35:23;;;;;;;10.40;3.80;;;;;;;16.03;100.00;100615.84;5051910;28;20337;-76
2023/07/03 03:37:48;;;;;;;11.68;3.38;;;;;;;16.32;98.53;100621.13;5044839;28;20104;-76
2023/07/03 03:40:14;;;;;;;11.73;2.50;;;;;;;16.31;96.87;100624.38;5043671;28;20542;-76
2023/07/03 03:42:39;;;;;;;13.50;3.65;;;;;;;16.51;96.14;100622.47;5039862;28;20022;-76
2023/07/03 03:45:05;;;;;;;9.98;2.95;;;;;;;16.11;99.48;100633.50;5040177;28;20238;-77
2023/07/03 03:47:31;;;;;;;12.05;3.67;;;;;;;16.22;97.88;100627.72;5035876;28;20100;-77
2023/07/03 03:49:56;;;;;;;18.30;3.33;;;;;;;16.51;96.28;100632.97;5023416;28;20040;-77
2023/07/03 03:52:22;;;;;;;13.70;3.00;;;;;;;16.43;96.09;100641.53;5040890;28;20072;-76
2023/07/03 03:54:47;;;;;;;13.25;3.80;;;;;;;16.51;96.15;100635.78;5021985;28;20028;-76
2023/07/03 03:57:13;;;;;;;9.13;2.67;;;;;;;16.39;97.09;100635.13;5039452;28;20561;-77
2023/07/03 03:59:39;;;;;;;8.38;4.05;;;;;;;16.53;94.71;100638.97;5040096;28;20550;-76
2023/07/03 04:02:04;;;;;;;8.35;2.70;;;;;;;16.70;94.03;100631.47;5043295;28;20450;-76
2023/07/03 04:04:30;;;;;;;7.25;2.88;;;;;;;16.57;97.11;100637.72;5042791;28;20041;-76
2023/07/03 04:06:55;;;;;;;11.88;2.95;;;;;;;16.37;96.25;100634.75;5045802;28;20057;-77
2023/07/03 04:09:20;;;;;;;8.60;2.53;;;;;;;16.44;94.60;100637.50;5042374;28;20083;-77
2023/07/03 04:11:46;;;;;;;6.95;2.63;;;;;;;16.44;95.32;100634.69;5039982;28;20080;-76
2023/07/03 04:14:12;;;;;;;8.52;3.25;;;;;;;16.55;92.73;100634.53;5011539;28;20552;-76
2023/07/03 04:16:38;;;;;;;12.13;2.85;;;;;;;16.42;94.06;100636.31;5024855;28;20232;-76
2023/07/03 04:19:03;;;;;;;10.85;3.42;;;;;;;16.54;92.65;100634.94;5046026;28;20048;-76
2023/07/03 04:21:28;;;;;;;9.77;2.83;;;;;;;16.64;93.83;100648.13;5047030;28;20052;-76
2023/07/03 04:23:54;;;;;;;10.45;3.15;;;;;;;16.44;94.38;100637.50;5020951;28;20028;-76
2023/07/03 04:26:20;;;;;;;9.73;3.40;;;;;;;16.62;93.45;100644.94;5043326;28;20082;-76
2023/07/03 04:28:45;;;;;;;10.93;2.90;;;;;;;16.59;93.23;100645.75;5027796;28;20174;-77
2023/07/03 04:31:11;;;;;;;10.60;3.88;;;;;;;16.69;94.21;100647.63;5039447;28;20119;-76
2023/07/03 04:33:36;;;;;;;10.07;3.60;;;;;;;16.71;94.92;100656.50;5042336;28;20033;-76
2023/07/03 04:36:02;;;;;;;8.20;2.85;;;;;;;16.84;92.63;100660.38;5040133;28;20452;-76
2023/07/03 04:38:27;;;;;;;10.13;3.53;;;;;;;16.64;98.27;100665.88;5040575;28;20032;-76
2023/07/03 04:40:53;;;;;;;13.90;4.30;;;;;;;16.56;100.00;100660.75;5043935;28;20076;-76
2023/07/03 04:43:22;;;;;;;15.77;3.03;;;;;;;16.66;95.76;100671.13;5039267;28;20115;-76
2023/07/03 04:45:50;;;;;;;8.68;3.40;;;;;;;16.63;96.37;100669.13;5031102;28;20040;-76
2023/07/03 04:48:16;;;;;;;14.27;3.63;;;;;;;16.21;97.95;100666.44;5038041;28;20033;-76
2023/07/03 04:50:42;;;;;;;13.98;3.92;;;;;;;16.34;97.63;100663.88;5038192;28;20033;-77
2023/07/03 04:53:08;;;;;;;11.20;3.80;;;;;;;16.72;93.09;100666.59;5044413;28;20079;-76
2023/07/03 04:55:34;;;;;;;8.75;2.88;;;;;;;16.50;94.19;100665.28;5037022;28;20037;-76
2023/07/03 04:57:59;;;;;;;8.70;2.58;;;;;;;16.66;91.87;100668.28;5040472;28;20055;-76
2023/07/03 05:00:27;;;;;;;9.77;2.70;;;;;;;16.62;91.88;100676.00;5035725;28;20615;-75
2023/07/03 05:02:57;;;;;;;10.35;3.25;;;;;;;16.46;92.47;100666.13;5040773;28;20056;-76
2023/07/03 05:05:23;;;;;;;6.57;1.98;;;;;;;16.50;92.99;100665.28;5039579;28;20052;-76
2023/07/03 05:07:48;;;;;;;6.05;2.45;;;;;;;16.49;91.45;100670.13;5019581;28;20060;-75
2023/07/03 05:10:16;;;;;;;9.65;2.97;;;;;;;16.74;88.82;100668.97;5034090;28;20147;-76
2023/07/03 05:12:42;;;;;;;4.47;2.55;;;;;;;16.57;90.46;100668.00;5057829;28;20032;-76
2023/07/03 05:15:09;;;;;;;7.80;2.58;;;;;;;16.78;89.42;100662.06;5059773;28;20036;-76
2023/07/03 05:17:38;;;;;;;8.40;2.88;;;;;;;16.55;90.93;100678.91;5062506;28;20133;-76
2023/07/03 05:20:12;;;;;;;10.85;2.20;;;;;;;16.72;89.11;100682.72;5060253;28;20526;-76
2023/07/03 05:22:42;;;;;;;8.30;2.65;;;;;;;16.52;90.95;100685.44;5053966;28;20086;-76
2023/07/03 05:25:09;;;;;;;7.80;2.55;;;;;;;16.52;90.73;100674.91;5051901;28;20040;-76
2023/07/03 05:27:35;;;;;;;7.15;2.97;;;;;;;16.35;90.38;100676.75;5059746;28;20491;-76
2023/07/03 05:30:00;;;;;;;8.57;2.15;;;;;;;16.46;89.41;100680.25;5058807;28;20095;-75
2023/07/03 05:32:26;;;;;;;8.73;2.05;;;;;;;16.66;88.27;100680.38;5060061;28;20074;-76
2023/07/03 05:34:51;;;;;;;8.05;2.60;;;;;;;16.67;87.50;100681.19;5061560;28;20028;-76
2023/07/03 05:37:18;;;;;;;11.50;2.85;;;;;;;16.61;87.82;100677.22;5056597;28;20023;-76
2023/07/03 05:39:46;;;;;;;6.85;2.45;;;;;;;16.59;87.19;100685.31;5055417;28;20021;-76
2023/07/03 05:42:12;;;;;;;10.38;2.97;;;;;;;16.52;86.75;100685.44;5051824;28;20361;-75
2023/07/03 05:44:38;;;;;;;5.50;1.95;;;;;;;16.67;86.36;100692.47;5052496;28;20473;-75
2023/07/03 05:47:03;;;;;;;6.72;1.80;;;;;;;16.65;85.76;100695.75;5059440;28;20042;-75
2023/07/03 05:49:29;;;;;;;5.63;2.00;;;;;;;16.76;85.05;100695.59;5057594;28;20048;-75
2023/07/03 05:51:54;;;;;;;8.13;1.88;;;;;;;16.78;84.60;100695.97;5056421;28;20029;-76
2023/07/03 05:54:21;;;;;;;6.85;1.58;;;;;;;16.79;85.31;100706.03;5056666;28;20051;-75
2023/07/03 05:57:02;;;;;;;9.82;2.08;;;;;;;16.99;84.26;100702.56;5058470;28;20032;-75
2023/07/03 05:59:27;;;;;;;7.10;2.10;;;;;;;16.93;83.81;100698.59;5061277;28;20032;-75
2023/07/03 06:01:55;;;;;;;5.50;2.08;;;;;;;17.03;86.60;100694.81;5059875;28;20039;-78
2023/07/03 06:04:22;;;;;;;4.57;1.77;;;;;;;17.84;82.45;100699.59;5062426;28;20025;-79
2023/07/03 06:06:52;;;;;;;8.85;2.15;;;;;;;17.98;83.25;100693.66;5052487;28;20029;-78
2023/07/03 06:09:17;;;;;;;8.93;2.03;;;;;;;18.30;77.84;100709.22;5054758;28;20489;-75
2023/07/03 06:11:43;;;;;;;8.00;1.92;;;;;;;17.81;77.85;100703.22;5036275;28;20045;-76
2023/07/03 06:14:15;;;;;;;8.30;1.80;;;;;;;17.97;79.00;100703.38;5038744;28;20057;-75
2023/07/03 06:16:42;;;;;;;7.63;1.90;;;;;;;18.44;78.24;100708.91;5032738;28;20131;-75
2023/07/03 06:19:07;;;;;;;4.38;1.50;;;;;;;18.65;76.33;100704.81;5041035;28;20033;-75
2023/07/03 06:21:32;;;;;;;7.70;1.83;;;;;;;18.25;77.34;100701.22;5032373;28;20029;-76
2023/07/03 06:23:58;;;;;;;4.85;1.90;;;;;;;18.55;76.24;100705.06;5037418;28;20171;-75
2023/07/03 06:26:23;;;;;;;8.68;2.00;;;;;;;18.20;77.92;100698.91;5036182;28;20033;-76
2023/07/03 06:28:48;;;;;;;8.20;1.67;;;;;;;17.64;78.33;100691.78;5025103;28;20420;-76
2023/07/03 06:31:14;;;;;;;12.93;2.50;;;;;;;17.85;77.75;100701.16;5032649;28;20032;-76
2023/07/03 06:33:39;;;;;;;5.75;2.00;;;;;;;18.01;76.68;100704.09;5034719;28;20029;-75
2023/07/03 06:36:04;;;;;;;9.65;1.90;;;;;;;18.36;76.75;100701.81;5035239;28;20075;-75
2023/07/03 06:38:30;;;;;;;6.88;1.95;;;;;;;18.38;76.45;100698.53;5017910;28;20078;-74
2023/07/03 06:40:59;;;;;;;6.93;2.03;;;;;;;18.54;73.27;100711.97;5039957;28;20120;-75
2023/07/03 06:43:25;;;;;;;7.90;2.97;;;;;;;18.67;73.67;100716.53;5044531;28;20035;-74
2023/07/03 06:45:51;;;;;;;6.43;1.67;;;;;;;18.77;71.75;100720.38;5036086;28;20093;-75
2023/07/03 06:48:16;;;;;;;4.82;2.13;;;;;;;18.23;74.09;100709.34;5040172;28;20738;-75
2023/07/03 06:50:41;;;;;;;7.85;1.63;;;;;;;18.25;74.95;100707.66;5039817;28;20048;-75
2023/07/03 06:53:07;;;;;;;5.68;2.05;;;;;;;18.31;74.98;100712.84;5045907;28;20033;-76
2023/07/03 06:55:32;;;;;;;9.93;2.40;;;;;;;18.18;74.54;100713.50;5038389;28;20122;-76
2023/07/03 06:58:00;;;;;;;6.30;2.10;;;;;;;18.27;75.51;100719.38;5047420;28;20024;-76
2023/07/03 07:00:26;;;;;;;8.38;3.35;;;;;;;18.26;75.29;100711.31;5038526;28;20440;-76
2023/07/03 07:02:52;;;;;;;4.88;2.25;;;;;;;18.36;75.77;100721.66;5039703;28;21425;-74
2023/07/03 07:05:19;;;;;;;4.63;1.90;;;;;;;17.96;76.83;100717.97;5040226;28;20504;-74
2023/07/03 07:07:45;;;;;;;7.80;3.05;;;;;;;17.76;77.85;100718.69;5039094;28;20134;-73
2023/07/03 07:10:10;;;;;;;5.93;2.42;;;;;;;17.51;77.93;100716.28;5030006;28;20590;-74
2023/07/03 07:12:36;;;;;;;10.10;2.08;;;;;;;17.48;76.69;100722.81;5062283;28;20154;-74
2023/07/03 07:15:02;;;;;;;9.35;1.92;;;;;;;17.26;76.84;100716.69;5061446;28;20055;-73
2023/07/03 07:17:27;;;;;;;9.25;1.80;;;;;;;17.49;77.72;100727.25;5058959;28;20075;-74
2023/07/03 07:19:53;;;;;;;3.75;1.38;;;;;;;17.67;75.50;100719.25;5059015;28;20035;-74
2023/07/03 07:22:18;;;;;;;5.90;1.70;;;;;;;18.05;74.38;100732.38;5054865;28;20029;-74
2023/07/03 07:24:44;;;;;;;6.30;1.70;;;;;;;17.98;73.02;100721.97;5061275;28;20020;-74
2023/07/03 07:27:09;;;;;;;7.07;1.65;;;;;;;18.20;72.07;100713.84;5055278;28;20078;-74
2023/07/03 07:29:34;;;;;;;6.07;2.03;;;;;;;17.97;71.88;100726.03;5055764;28;20033;-74
2023/07/03 07:32:00;;;;;;;6.60;1.77;;;;;;;17.98;72.55;100721.97;5056767;28;20064;-74
2023/07/03 07:34:25;;;;;;;4.90;1.17;;;;;;;17.96;74.97;100724.44;5058609;28;20028;-75
2023/07/03 07:36:51;;;;;;;11.60;1.90;;;;;;;17.82;74.90;100724.66;5054670;28;20020;-74
2023/07/03 07:39:19;;;;;;;11.10;1.58;;;;;;;17.66;73.61;100728.97;5060922;28;20434;-74
2023/07/03 07:41:45;;;;;;;5.80;2.00;;;;;;;17.54;74.88;100743.75;5054747;28;20369;-74
2023/07/03 07:44:11;;;;;;;5.35;1.92;;;;;;;17.67;75.36;100733.41;5054966;28;20028;-74
2023/07/03 07:46:36;;;;;;;6.82;1.60;;;;;;;17.79;73.24;100740.50;5052750;28;20517;-74
2023/07/03 07:49:02;;;;;;;5.15;1.80;;;;;;;18.08;73.87;100735.09;5059382;28;20638;-74
2023/07/03 07:51:29;;;;;;;8.18;1.60;;;;;;;18.32;74.94;100731.44;5053197;28;20035;-74
2023/07/03 07:53:55;;;;;;;6.57;1.85;;;;;;;18.43;75.46;100727.16;5060335;28;20028;-74
2023/07/03 07:56:22;;;;;;;10.63;2.53;;;;;;;18.11;72.76;100735.47;5057551;28;20036;-74
2023/07/03 07:58:48;;;;;;;3.72;1.40;;;;;;;18.13;71.72;100733.00;5057263;28;20037;-74
2023/07/03 08:01:14;;;;;;;7.65;1.80;;;;;;;18.29;75.59;100747.28;5055845;28;20025;-74
2023/07/03 08:03:41;;;;;;;8.95;2.17;;;;;;;18.23;71.69;100734.84;5056148;28;20724;-74
2023/07/03 08:06:07;;;;;;;8.27;2.28;;;;;;;18.42;71.35;100739.72;5058242;28;20021;-74
2023/07/03 08:08:32;;;;;;;6.55;2.80;;;;;;;18.61;70.54;100731.66;5057905;28;20551;-74
2023/07/03 08:11:01;;;;;;;9.50;2.22;;;;;;;19.00;71.91;100738.53;5059385;28;20087;-73
2023/07/03 08:13:29;;;;;;;10.20;2.83;;;;;;;18.71;68.60;100730.63;5063664;28;20389;-75
2023/07/03 08:15:54;;;;;;;9.65;1.73;;;;;;;18.32;72.29;100734.25;5058004;28;20032;-74
2023/07/03 08:18:21;;;;;;;7.97;1.90;;;;;;;18.28;72.57;100740.03;5057660;28;20033;-74
2023/07/03 08:20:48;;;;;;;6.30;2.38;;;;;;;18.15;74.81;100744.72;5054189;28;20032;-75
2023/07/03 08:23:13;;;;;;;5.10;1.90;;;;;;;18.45;74.07;100744.53;5060261;28;20028;-75
2023/07/03 08:25:39;;;;;;;5.75;1.52;;;;;;;18.55;75.52;100750.41;5060348;28;20028;-75
2023/07/03 08:28:05;;;;;;;8.38;1.73;;;;;;;18.62;69.25;100753.09;5035662;28;20458;-75
2023/07/03 08:30:30;;;;;;;5.65;1.80;;;;;;;19.35;70.88;100753.13;5060470;28;20039;-75
2023/07/03 08:32:56;;;;;;;8.55;1.92;;;;;;;19.69;69.90;100756.34;5062553;28;20024;-75
2023/07/03 08:35:21;;;;;;;5.28;2.22;;;;;;;19.84;66.53;100756.00;5059884;28;20047;-75
2023/07/03 08:37:46;;;;;;;8.50;1.70;;;;;;;20.02;68.20;100756.31;5069804;28;20028;-75
2023/07/03 08:40:18;;;;;;;5.57;1.98;;;;;;;19.84;70.31;100753.19;5066263;28;20024;-75
2023/07/03 08:42:49;;;;;;;8.20;1.92;;;;;;;19.63;71.10;100745.97;5060521;28;20059;-75
2023/07/03 08:45:17;;;;;;;3.85;1.83;;;;;;;19.40;72.62;100749.78;5067056;28;20028;-75
2023/07/03 08:47:45;;;;;;;3.83;1.70;;;;;;;19.60;70.96;100759.00;5068207;28;20032;-75
2023/07/03 08:50:16;;;;;;;7.25;2.20;;;;;;;19.26;72.30;100757.38;5045406;28;20115;-75
2023/07/03 08:52:47;;;;;;;7.57;1.70;;;;;;;19.40;70.36;100759.09;5066459;28;20572;-75
2023/07/03 08:55:20;;;;;;;6.25;1.83;;;;;;;19.06;68.52;100765.94;5064854;28;20550;-75
2023/07/03 08:57:45;;;;;;;4.72;1.88;;;;;;;19.67;65.98;100770.19;5066885;28;20024;-74
2023/07/03 09:00:12;;;;;;;6.88;1.90;;;;;;;19.24;70.39;100779.72;5064955;28;20043;-75
2023/07/03 09:02:43;;;;;;;5.47;2.50;;;;;;;19.43;68.80;100774.44;5068188;28;20545;-76
2023/07/03 09:05:21;;;;;;;6.65;1.67;;;;;;;19.69;70.75;100790.41;5046285;28;20028;-75
2023/07/03 09:07:53;;;;;;;8.25;1.67;;;;;;;19.24;70.02;100787.44;5066894;28;20448;-75
2023/07/03 09:10:43;;;;;;;4.53;1.75;;;;;;;19.46;69.64;100776.41;5062335;28;20055;-75
2023/07/03 09:13:24;;;;;;;6.25;1.77;;;;;;;19.15;67.71;100782.38;5027440;28;20512;-75
2023/07/03 09:16:08;;;;;;;4.93;1.83;;;;;;;19.64;65.45;100782.41;5025116;28;20126;-75
2023/07/03 09:18:47;;;;;;;6.53;1.77;;;;;;;19.61;66.71;100777.63;5023580;28;20041;-75
2023/07/03 09:21:12;;;;;;;4.80;1.70;;;;;;;20.01;67.14;100776.69;5043799;28;20392;-75
2023/07/03 09:23:51;;;;;;;8.27;1.73;;;;;;;19.69;66.29;100784.75;5045903;28;20025;-75
2023/07/03 09:26:23;;;;;;;6.45;1.90;;;;;;;19.51;67.43;100773.00;5028014;28;20315;-75
2023/07/03 09:28:57;;;;;;;5.55;1.73;;;;;;;19.76;68.96;100778.09;5044031;28;20500;-75
2023/07/03 09:31:23;;;;;;;3.60;1.70;;;;;;;19.67;69.46;100784.38;5048602;28;20056;-75
2023/07/03 09:33:48;;;;;;;7.93;2.25;;;;;;;;;;5039502;28;20021;-75
2023/07/03 09:36:23;;;;;;;4.72;1.85;;;;;;;20.04;64.05;100784.28;5044063;28;20469;-75
2023/07/03 09:38:49;;;;;;;3.65;1.58;;;;;;;20.25;63.13;100780.09;5043099;28;20382;-75
2023/07/03 09:41:24;;;;;;;6.68;1.50;;;;;;;19.96;63.12;100775.16;5040596;28;21447;-75
2023/07/03 09:43:49;;;;;;;6.72;1.30;;;;;;;19.95;64.78;100784.94;5045402;28;20037;-75
2023/07/03 09:46:16;;;;;;;9.25;2.45;;;;;;;19.68;61.22;100782.34;5025863;28;20122;-75
2023/07/03 09:48:42;;;;;;;5.80;1.73;;;;;;;19.59;61.92;100785.00;5043526;28;20039;-75
2023/07/03 09:51:20;;;;;;;4.38;2.05;;;;;;;19.65;64.54;100795.38;5045003;28;20111;-75
2023/07/03 09:53:46;;;;;;;9.02;1.40;;;;;;;19.67;63.97;100792.91;5043792;28;20485;-75
2023/07/03 09:56:20;;;;;;;5.43;1.60;;;;;;;19.52;64.38;100797.31;5041052;28;20033;-75
2023/07/03 09:58:50;;;;;;;5.22;1.85;;;;;;;19.61;64.79;100800.34;5045880;28;20016;-75
2023/07/03 10:01:21;;;;;;;4.78;1.50;;;;;;;19.70;64.84;100797.72;5037477;28;20171;-75
2023/07/03 10:03:46;;;;;;;4.40;1.65;;;;;;;19.92;66.50;100797.16;5042957;28;20036;-75
2023/07/03 10:06:15;;;;;;;5.03;1.02;;;;;;;19.96;66.22;100797.09;5041731;28;20397;-75
2023/07/03 10:08:45;;;;;;;6.85;1.60;;;;;;;19.68;66.41;100805.06;5026174;28;20043;-76
2023/07/03 10:11:12;;;;;;;5.60;1.42;;;;;;;19.86;66.06;100796.94;5058325;28;20075;-75
2023/07/03 10:13:49;;;;;;;3.15;1.27;;;;;;;20.17;63.72;100812.78;5059955;28;20466;-75
2023/07/03 10:16:15;;;;;;;4.65;1.65;;;;;;;19.55;62.99;100812.69;5054159;28;20112;-75
2023/07/03 10:18:48;;;;;;;3.85;1.65;;;;;;;19.82;63.83;100810.41;5062007;28;20085;-75
2023/07/03 10:21:16;;;;;;;6.25;1.70;;;;;;;20.13;65.87;100820.59;5064880;28;20033;-75
2023/07/03 10:23:44;;;;;;;5.10;1.33;;;;;;;20.02;65.52;100813.16;5062671;28;20496;-76
2023/07/03 10:26:16;;;;;;;4.32;1.67;;;;;;;;;;5059485;28;20032;-75
2023/07/03 10:28:48;;;;;;;5.22;1.77;;;;;;;19.75;66.25;100818.31;5066211;28;20389;-75
2023/07/03 10:31:20;;;;;;;5.95;1.48;;;;;;;19.52;65.55;100813.53;5047035;28;20028;-75
2023/07/03 10:33:48;;;;;;;;;;;;;;;19.77;65.52;100818.66;5060421;28;20477;-75
2023/07/03 10:36:21;;;;;;;3.33;1.08;;;;;;;20.16;64.90;100805.50;5062155;28;19941;-76
2023/07/03 10:38:58;;;;;;;2.88;1.08;;;;;;;20.16;60.46;100811.19;5058195;28;20028;-75
2023/07/03 10:41:47;;;;;;;4.75;1.33;;;;;;;20.15;61.15;100804.69;5058170;28;20664;-76
2023/07/03 10:44:18;;;;;;;4.15;0.82;;;;;;;19.91;62.51;100795.59;5042357;28;20090;-76
2023/07/03 10:46:51;;;;;;;3.17;1.00;;;;;;;20.44;61.99;100792.56;5056666;28;20389;-76
2023/07/03 10:49:28;;;;;;;4.80;1.25;;;;;;;20.64;59.92;100806.63;5059972;28;20028;-76
2023/07/03 10:51:56;;;;;;;5.68;1.85;;;;;;;20.68;58.94;100808.16;5059623;28;20028;-76
2023/07/03 10:54:32;;;;;;;5.32;1.55;;;;;;;20.37;60.44;100810.63;5061913;28;20472;-75
2023/07/03 10:57:01;;;;;;;1.85;0.93;;;;;;;20.32;63.54;100811.16;5056023;28;20025;-75
2023/07/03 10:59:32;;;;;;;2.22;0.90;;;;;;;20.40;60.92;100801.19;5047189;28;20033;-76
2023/07/03 11:02:28;;;;;;;3.03;1.25;;;;;;;20.04;63.49;100804.19;5058931;28;20025;-75
2023/07/03 11:05:26;;;;;;;3.13;1.13;;;;;;;19.70;61.32;100817.59;5055626;28;20372;-75
2023/07/03 11:07:51;;;;;;;2.97;1.02;;;;;;;;;;5049240;28;20062;-75
2023/07/03 11:10:55;;;;;;;3.63;1.00;;;;;;;19.53;63.39;100815.94;5051758;28;20052;-75
2023/07/03 11:13:29;;;;;;;2.45;1.02;;;;;;;19.58;61.31;100829.59;5043272;28;20061;-75
2023/07/03 11:16:13;;;;;;;1.88;1.00;;;;;;;19.56;61.62;100843.44;5042443;28;20804;-76
2023/07/03 11:18:57;;;;;;;7.70;1.65;;;;;;;19.57;59.95;100839.38;5044215;28;20044;-75
2023/07/03 11:21:42;;;;;;;4.53;1.15;;;;;;;19.50;56.35;100839.53;5042508;28;20392;-75
2023/07/03 11:24:08;;;;;;;2.78;1.10;;;;;;;19.61;59.02;100831.59;5040914;28;20013;-76
2023/07/03 11:26:46;;;;;;;5.70;2.50;;;;;;;19.71;60.42;100838.25;5043173;28;20391;-74
2023/07/03 11:29:11;;;;;;;1.63;1.02;;;;;;;19.76;55.78;100819.91;5035972;28;20029;-75